Forks, WA

1:39 AM PDT on October 01, 2014 (GMT -0700)
Sanderson | Change Station
CLOSE
Current Station
Airport
Location: Shelton,
Elevation: 269 ft
Nearby Weather Stations

Elev 269 ft 47.24 °N, 123.14 °W | Updated 46 minutes ago

Mostly Cloudy
Mostly Cloudy
50 °F
Feels Like 50 °F
N
0
Wind Variable Wind from North

Today
High -- | Low -- °F
--% Chance of Precip.
Yesterday
High -- | Low -- °F
Precip. -- in
7:17 AM 6:56 PM
Waxing Crescent, 45% visible
Pressure 30.16 in
Visibility 10.0 miles
Clouds Scattered Clouds 4700 ft
Overcast 6000 ft
Dew Point 48 °F
Humidity 93%
Rainfall 0.00 in
Snow Depth Not available.
UV 0 out of 12
Pollen .20 out of 12
Air Quality Not available.
Flu Activity Not available.
METAR KSHN 010753Z AUTO 00000KT 10SM SCT047 OVC060 10/09 A3016 RMK AO2 SLP213 T01000089 402060100 TSNO

More Conditions Fewer Conditions

Pressure 30.16 in
Visibility 10.0 miles
Clouds Scattered Clouds 4700 ft
Overcast 6000 ft
Dew Point 48 °F
Humidity 93%
Rainfall 0.00 in
Snow Depth Not available.
UV 0 out of 12
Pollen .20 out of 12
Air Quality Not available.
Flu Activity Not available.
METAR KSHN 010753Z AUTO 00000KT 10SM SCT047 OVC060 10/09 A3016 RMK AO2 SLP213 T01000089 402060100 TSNO

More Conditions Fewer Conditions

10-Day Weather Forecast

Almanac

Astronomy

Oct. 01, 2014 Rise Set
Actual Time 7:17 AM PDT 6:56 PM PDT
Civil Twilight 6:46 AM PDT 7:27 PM PDT
Nautical Twilight 6:10 AM PDT 8:03 PM PDT
Astronomical Twilight 5:33 AM PDT 8:40 PM PDT
Moon 2:41 PM PDT No Moon Set
Length of Visible Light 12h 41m
Length of Day
11h 39m
Tomorrow will be 3m 27s shorter.
Waxing Crescent, 45% of the Moon is Illuminated
Today
Waxing Crescent
Oct 1
First Quarter
Oct 8
Full
Oct 15
Last Quarter
Oct 23
New

Today's Extremes

State Highs State Lows

Community

WunderPhotos

Upload Photos

1,757,902 photos uploaded!

Nearby

Snow Depth

Station Depth Elevation
Fish Lake 0 in 3371 ft
Green Lake 0 in 6000 ft
White Pass E.S. 0 in 4500 ft
Sasse Ridge 0 in 4200 ft
Touchet 0 in 5530 ft

Earthquake Activity

City Distance Mag. Time & Date
No recent earthquake activity has been reported nearby.
Minimum magnitude displayed is 2.5.

Coastal Water Temperatures

Place Temperature
La Push, WA 59.0 °F
Westport, WA 61.0 °F
Port Angeles, WA 52.0 °F
Astoria, OR 64.9 °F

Nearby Weather Stations